createdAt,value
2023-05-16T00:00:09.207Z,11.00
2023-05-16T00:05:14.475Z,10.86
2023-05-16T00:10:15.828Z,10.91
2023-05-16T00:15:17.899Z,10.87
2023-05-16T00:20:23.368Z,10.86
2023-05-16T00:25:24.923Z,10.75
2023-05-16T00:30:26.360Z,10.70
2023-05-16T00:35:27.846Z,10.54
2023-05-16T00:40:29.366Z,10.48
2023-05-16T00:45:30.809Z,10.31
2023-05-16T00:50:33.171Z,10.28
2023-05-16T00:55:34.491Z,10.10
2023-05-16T01:00:36.218Z,10.10
2023-05-16T01:05:37.528Z,10.09
2023-05-16T01:10:59.282Z,10.06
2023-05-16T01:16:04.748Z,10.11
2023-05-16T01:21:10.460Z,10.14
2023-05-16T01:26:27.969Z,10.09
2023-05-16T01:31:29.359Z,10.02
2023-05-16T01:36:37.104Z,10.02
2023-05-16T01:41:47.864Z,10.00
2023-05-16T01:46:52.989Z,9.98
2023-05-16T01:51:58.973Z,9.95
2023-05-16T01:57:01.005Z,9.92
2023-05-16T02:02:02.555Z,9.86
2023-05-16T02:07:04.323Z,9.86
2023-05-16T02:12:05.718Z,9.86
2023-05-16T02:17:07.257Z,9.82
2023-05-16T02:22:08.630Z,9.85
2023-05-16T02:27:10.406Z,9.81
2023-05-16T02:32:11.703Z,9.85
2023-05-16T02:37:13.480Z,9.88
2023-05-16T02:42:14.929Z,9.89
2023-05-16T02:47:16.265Z,9.84
2023-05-16T02:52:18.075Z,9.90
2023-05-16T02:57:19.378Z,9.82
2023-05-16T03:02:20.735Z,9.78
2023-05-16T03:07:22.090Z,9.65
2023-05-16T03:12:23.411Z,9.51
2023-05-16T03:17:24.755Z,9.49
2023-05-16T03:22:26.126Z,9.43
2023-05-16T03:27:27.932Z,9.42
2023-05-16T03:32:29.279Z,9.39
2023-05-16T03:37:30.684Z,9.33
2023-05-16T03:42:32.308Z,9.18
2023-05-16T03:47:33.908Z,9.16
2023-05-16T03:52:35.688Z,9.04
2023-05-16T03:57:38.232Z,8.99
2023-05-16T04:02:42.964Z,8.87
2023-05-16T04:07:44.333Z,8.78
2023-05-16T04:12:45.664Z,8.73
2023-05-16T04:17:47.071Z,8.69
2023-05-16T04:22:48.599Z,8.70
2023-05-16T04:27:49.924Z,8.63
2023-05-16T04:32:51.383Z,8.60
2023-05-16T04:37:52.691Z,8.46
2023-05-16T04:42:54.549Z,8.46
2023-05-16T04:47:55.919Z,8.39
2023-05-16T04:52:57.890Z,8.51
2023-05-16T04:57:59.249Z,8.48
2023-05-16T05:03:00.698Z,8.47
2023-05-16T05:08:02.120Z,8.44
2023-05-16T05:13:03.446Z,8.45
2023-05-16T05:18:04.914Z,8.50
2023-05-16T05:23:06.296Z,8.48
2023-05-16T05:28:07.649Z,8.51
2023-05-16T05:33:11.006Z,8.34
2023-05-16T05:38:12.312Z,8.26
2023-05-16T05:43:13.612Z,8.28
2023-05-16T05:48:15.001Z,8.19
2023-05-16T05:53:16.357Z,8.12
2023-05-16T05:58:18.215Z,8.01
2023-05-16T06:03:21.180Z,8.02
2023-05-16T06:08:22.652Z,8.12
2023-05-16T06:13:24.014Z,8.08
2023-05-16T06:18:25.499Z,8.03
2023-05-16T06:23:27.188Z,7.84
2023-05-16T06:28:28.886Z,7.88
2023-05-16T06:33:30.176Z,8.12
2023-05-16T06:38:31.501Z,8.24
2023-05-16T06:43:32.863Z,8.19
2023-05-16T06:48:34.196Z,8.61
2023-05-16T06:53:35.674Z,9.09
2023-05-16T06:58:37.031Z,9.90
2023-05-16T07:03:38.529Z,11.69
2023-05-16T07:08:39.966Z,13.76
2023-05-16T07:13:41.324Z,14.36
2023-05-16T07:18:42.736Z,16.40
2023-05-16T07:23:44.105Z,17.34
2023-05-16T07:28:45.435Z,18.42
2023-05-16T07:33:47.148Z,17.07
2023-05-16T07:38:48.569Z,13.47
2023-05-16T07:43:49.917Z,12.85
2023-05-16T07:48:51.559Z,16.56
2023-05-16T07:53:52.942Z,16.56
2023-05-16T07:58:54.657Z,19.96
2023-05-16T08:03:56.288Z,19.37
2023-05-16T08:08:57.682Z,15.57
2023-05-16T08:13:59.048Z,17.16
2023-05-16T08:19:00.469Z,16.61
2023-05-16T08:24:01.950Z,15.28
2023-05-16T08:29:03.317Z,14.00
2023-05-16T08:34:06.440Z,16.03
2023-05-16T08:39:08.265Z,14.98
2023-05-16T08:44:12.469Z,16.96
2023-05-16T08:49:14.206Z,19.48
2023-05-16T08:54:16.189Z,19.24
2023-05-16T08:59:17.692Z,17.55
2023-05-16T09:04:19.540Z,15.91
2023-05-16T09:09:21.018Z,16.29
2023-05-16T09:14:22.532Z,16.10
2023-05-16T09:19:23.878Z,15.91
2023-05-16T09:24:26.191Z,21.08
2023-05-16T09:29:27.969Z,19.67
2023-05-16T09:34:29.346Z,21.47
2023-05-16T09:39:30.790Z,21.61
2023-05-16T09:44:32.324Z,19.33
2023-05-16T09:49:33.697Z,19.28
2023-05-16T09:54:35.593Z,21.57
2023-05-16T09:59:37.726Z,21.34
2023-05-16T10:04:39.117Z,20.64
2023-05-16T10:09:40.859Z,21.55
2023-05-16T10:14:42.376Z,21.93
2023-05-16T10:19:44.123Z,21.62
2023-05-16T10:24:52.102Z,21.89
2023-05-16T10:29:54.999Z,21.37
2023-05-16T10:34:57.085Z,21.60
2023-05-16T10:40:00.280Z,22.07
2023-05-16T10:45:10.729Z,23.07
2023-05-16T10:50:12.769Z,22.68
2023-05-16T10:55:14.143Z,20.87
2023-05-16T11:00:22.251Z,22.05
2023-05-16T11:05:25.564Z,22.93
2023-05-16T11:10:27.125Z,19.23
2023-05-16T11:15:31.281Z,18.42
2023-05-16T11:20:37.000Z,19.00
2023-05-16T11:25:41.596Z,20.59
2023-05-16T11:30:44.348Z,17.75
2023-05-16T11:36:13.981Z,19.09
2023-05-16T11:41:18.685Z,19.18
2023-05-16T11:46:20.099Z,19.31
2023-05-16T11:51:21.638Z,18.01
2023-05-16T11:56:23.529Z,18.08
2023-05-16T12:01:25.117Z,18.07
2023-05-16T12:06:26.469Z,18.81
2023-05-16T12:11:27.875Z,19.71
2023-05-16T12:16:29.355Z,18.40
2023-05-16T12:21:34.154Z,19.30
2023-05-16T12:26:35.856Z,18.29
2023-05-16T12:31:38.445Z,18.16
2023-05-16T12:36:39.783Z,18.40
2023-05-16T12:41:42.943Z,19.14
2023-05-16T12:46:45.576Z,18.66
2023-05-16T12:51:51.223Z,18.54
2023-05-16T12:56:52.672Z,18.96
2023-05-16T13:01:54.057Z,19.01
2023-05-16T13:06:59.651Z,18.54
2023-05-16T13:12:01.366Z,17.83
2023-05-16T13:17:03.474Z,18.01
2023-05-16T13:22:04.824Z,17.18
2023-05-16T13:27:06.170Z,17.90
2023-05-16T13:32:07.779Z,17.80
2023-05-16T13:37:09.184Z,16.96
2023-05-16T13:42:10.616Z,17.40
2023-05-16T13:47:12.078Z,17.84
2023-05-16T13:52:13.458Z,17.74
2023-05-16T13:57:14.813Z,17.75
2023-05-16T14:02:16.299Z,17.91
2023-05-16T14:07:18.026Z,17.61
2023-05-16T14:12:19.713Z,17.13
2023-05-16T14:17:21.327Z,16.95
2023-05-16T14:22:22.690Z,16.68
2023-05-16T14:27:24.125Z,16.43
2023-05-16T14:32:25.616Z,16.61
2023-05-16T14:37:27.438Z,16.62
2023-05-16T14:42:28.786Z,15.43
2023-05-16T14:47:31.273Z,15.17
2023-05-16T14:52:32.730Z,15.70
2023-05-16T14:57:34.557Z,15.97
2023-05-16T15:02:35.961Z,16.06
2023-05-16T15:07:37.364Z,16.18
2023-05-16T15:12:41.044Z,16.45
2023-05-16T15:17:42.622Z,16.08
2023-05-16T15:22:43.977Z,16.28
2023-05-16T15:27:45.500Z,16.19
2023-05-16T15:32:46.972Z,16.03
2023-05-16T15:37:48.416Z,15.95
2023-05-16T15:42:49.741Z,15.89
2023-05-16T15:47:51.654Z,15.70
2023-05-16T15:52:53.072Z,15.67
2023-05-16T15:57:57.168Z,15.91
2023-05-16T16:02:58.654Z,15.91
2023-05-16T16:08:00.192Z,15.76
2023-05-16T16:13:02.293Z,15.87
2023-05-16T16:18:03.679Z,16.05
2023-05-16T16:23:05.158Z,15.89
2023-05-16T16:28:08.235Z,15.69
2023-05-16T16:33:09.673Z,15.34
2023-05-16T16:38:11.058Z,15.04
2023-05-16T16:43:12.414Z,14.70
2023-05-16T16:48:13.823Z,14.70
2023-05-16T16:53:15.381Z,14.67
2023-05-16T16:58:16.784Z,14.57
2023-05-16T17:03:18.282Z,14.76
2023-05-16T17:08:19.986Z,14.86
2023-05-16T17:13:21.642Z,15.16
2023-05-16T17:18:22.994Z,14.99
2023-05-16T17:23:24.352Z,14.64
2023-05-16T17:28:26.006Z,14.32
2023-05-16T17:33:27.364Z,13.82
2023-05-16T17:38:28.769Z,13.63
2023-05-16T17:43:30.322Z,13.62
2023-05-16T17:48:32.049Z,13.49
2023-05-16T17:53:33.440Z,13.44
2023-05-16T17:58:34.808Z,13.55
2023-05-16T18:03:36.228Z,13.37
2023-05-16T18:08:37.656Z,13.09
2023-05-16T18:13:39.142Z,12.69
2023-05-16T18:18:40.907Z,12.52
2023-05-16T18:23:42.315Z,12.47
2023-05-16T18:28:43.906Z,12.40
2023-05-16T18:33:45.480Z,12.33
2023-05-16T18:38:46.912Z,12.19
2023-05-16T18:43:48.292Z,11.99
2023-05-16T18:48:49.705Z,11.85
2023-05-16T18:53:51.133Z,11.92
2023-05-16T18:58:52.480Z,11.91
2023-05-16T19:03:53.984Z,12.00
2023-05-16T19:08:55.562Z,11.94
2023-05-16T19:13:56.920Z,11.92
2023-05-16T19:18:58.384Z,11.82
2023-05-16T19:23:59.909Z,11.86
2023-05-16T19:29:01.308Z,11.77
2023-05-16T19:34:02.961Z,11.61
2023-05-16T19:39:04.422Z,11.55
2023-05-16T19:44:05.899Z,11.62
2023-05-16T19:49:07.425Z,11.65
2023-05-16T19:54:08.828Z,11.61
2023-05-16T19:59:10.264Z,11.54
2023-05-16T20:04:11.894Z,11.55
2023-05-16T20:09:13.488Z,11.45
2023-05-16T20:14:14.865Z,11.48
2023-05-16T20:19:18.904Z,11.47
2023-05-16T20:24:20.779Z,11.44
2023-05-16T20:29:22.174Z,11.39
2023-05-16T20:34:23.524Z,11.41
2023-05-16T20:39:26.238Z,11.35
2023-05-16T20:44:29.216Z,11.31
2023-05-16T20:49:30.693Z,11.23
2023-05-16T20:54:32.697Z,11.26
2023-05-16T20:59:34.088Z,11.21
2023-05-16T21:04:36.644Z,11.23
2023-05-16T21:09:39.587Z,11.21
2023-05-16T21:14:41.917Z,11.17
2023-05-16T21:19:43.506Z,11.20
2023-05-16T21:24:44.949Z,11.06
2023-05-16T21:29:46.275Z,10.95
2023-05-16T21:34:47.614Z,10.74
2023-05-16T21:39:48.960Z,10.51
2023-05-16T21:44:50.653Z,10.23
2023-05-16T21:49:52.009Z,9.93
2023-05-16T21:54:53.363Z,9.70
2023-05-16T21:59:54.844Z,9.48
2023-05-16T22:04:56.224Z,9.34
2023-05-16T22:09:58.086Z,9.39
2023-05-16T22:14:59.476Z,9.50
2023-05-16T22:20:02.150Z,9.53
2023-05-16T22:25:05.040Z,9.64
2023-05-16T22:30:06.917Z,9.70
2023-05-16T22:35:08.474Z,9.80
2023-05-16T22:40:10.075Z,9.79
2023-05-16T22:45:11.543Z,9.70
2023-05-16T22:50:12.912Z,9.74
2023-05-16T22:55:14.261Z,9.77
2023-05-16T23:00:15.981Z,9.77
2023-05-16T23:05:17.421Z,9.75
2023-05-16T23:10:18.814Z,9.65
2023-05-16T23:15:20.251Z,9.57
2023-05-16T23:20:22.421Z,9.58
2023-05-16T23:25:23.787Z,9.54
2023-05-16T23:30:25.166Z,9.40
2023-05-16T23:35:26.828Z,9.23
2023-05-16T23:40:28.427Z,9.19
2023-05-16T23:45:30.389Z,9.25
2023-05-16T23:50:34.973Z,9.38
2023-05-16T23:55:36.350Z,9.41
